createdAt,value
2022-09-26T00:01:06.837Z,2.67
2022-09-26T00:03:34.212Z,2.28
2022-09-26T00:06:05.381Z,2.30
2022-09-26T00:08:32.612Z,2.75
2022-09-26T00:11:01.242Z,3.08
2022-09-26T00:13:29.373Z,2.85
2022-09-26T00:15:57.015Z,2.92
2022-09-26T00:18:24.588Z,2.72
2022-09-26T00:20:51.775Z,2.78
2022-09-26T00:23:19.028Z,3.45
2022-09-26T00:25:50.080Z,3.10
2022-09-26T00:28:17.781Z,3.15
2022-09-26T00:30:45.224Z,3.05
2022-09-26T00:33:12.533Z,3.80
2022-09-26T00:35:39.786Z,2.55
2022-09-26T00:38:08.046Z,3.25
2022-09-26T00:40:35.567Z,2.90
2022-09-26T00:43:02.708Z,2.83
2022-09-26T00:45:31.177Z,3.08
2022-09-26T00:48:02.294Z,2.78
2022-09-26T00:50:35.373Z,3.00
2022-09-26T00:53:02.517Z,3.40
2022-09-26T00:55:32.254Z,3.20
2022-09-26T00:58:25.571Z,3.08
2022-09-26T01:00:52.944Z,3.55
2022-09-26T01:03:20.576Z,3.35
2022-09-26T01:05:47.758Z,3.25
2022-09-26T01:08:16.386Z,3.65
2022-09-26T01:10:45.558Z,3.17
2022-09-26T01:13:13.149Z,3.50
2022-09-26T01:15:40.269Z,3.47
2022-09-26T01:18:07.712Z,3.45
2022-09-26T01:20:45.763Z,3.28
2022-09-26T01:23:28.232Z,3.03
2022-09-26T01:26:01.612Z,3.50
2022-09-26T01:28:48.387Z,2.83
2022-09-26T01:31:23.167Z,3.03
2022-09-26T01:33:59.096Z,3.30
2022-09-26T01:36:26.226Z,3.03
2022-09-26T01:39:05.620Z,3.90
2022-09-26T01:41:51.309Z,2.90
2022-09-26T01:44:24.490Z,3.08
2022-09-26T01:46:52.963Z,3.22
2022-09-26T01:49:23.869Z,3.47
2022-09-26T01:52:04.122Z,3.20
2022-09-26T01:54:35.687Z,3.10
2022-09-26T01:57:06.000Z,3.13
2022-09-26T01:59:35.851Z,2.92
2022-09-26T02:02:05.636Z,3.10
2022-09-26T02:04:38.099Z,3.08
2022-09-26T02:07:31.643Z,3.85
2022-09-26T02:10:02.614Z,3.63
2022-09-26T02:12:36.637Z,3.70
2022-09-26T02:15:05.941Z,3.08
2022-09-26T02:17:42.191Z,3.38
2022-09-26T02:20:11.793Z,3.17
2022-09-26T02:22:39.519Z,3.42
2022-09-26T02:25:06.918Z,3.40
2022-09-26T02:27:34.043Z,4.00
2022-09-26T02:30:01.713Z,3.63
2022-09-26T02:32:30.649Z,3.70
2022-09-26T02:34:58.456Z,4.32
2022-09-26T02:37:26.066Z,4.00
2022-09-26T02:39:53.649Z,4.10
2022-09-26T02:42:26.521Z,4.80
2022-09-26T02:44:53.619Z,4.55
2022-09-26T02:47:23.718Z,4.75
2022-09-26T02:50:09.664Z,4.50
2022-09-26T02:52:42.927Z,4.63
2022-09-26T02:55:19.897Z,4.97
2022-09-26T02:58:04.066Z,4.55
2022-09-26T03:00:35.733Z,4.53
2022-09-26T03:03:06.263Z,4.43
2022-09-26T03:05:35.611Z,4.90
2022-09-26T03:08:08.219Z,5.40
2022-09-26T03:10:36.250Z,5.20
2022-09-26T03:13:14.100Z,5.05
2022-09-26T03:15:42.511Z,5.07
2022-09-26T03:18:12.906Z,5.15
2022-09-26T03:20:40.851Z,5.50
2022-09-26T03:23:07.974Z,5.13
2022-09-26T03:25:35.123Z,5.72
2022-09-26T03:28:03.487Z,5.40
2022-09-26T03:30:30.784Z,6.15
2022-09-26T03:32:57.893Z,5.20
2022-09-26T03:35:24.981Z,5.72
2022-09-26T03:37:52.227Z,5.32
2022-09-26T03:40:19.598Z,5.93
2022-09-26T03:42:47.980Z,5.65
2022-09-26T03:45:15.138Z,5.45
2022-09-26T03:47:42.250Z,5.90
2022-09-26T03:50:09.660Z,4.93
2022-09-26T03:52:36.829Z,6.25
2022-09-26T03:55:04.765Z,6.28
2022-09-26T03:57:31.867Z,6.07
2022-09-26T03:59:59.014Z,6.40
2022-09-26T04:02:26.309Z,5.93
2022-09-26T04:04:53.482Z,5.80
2022-09-26T04:07:20.567Z,5.72
2022-09-26T04:09:47.691Z,5.88
2022-09-26T04:12:15.166Z,5.43
2022-09-26T04:14:45.127Z,5.93
2022-09-26T04:17:12.724Z,5.72
2022-09-26T04:19:40.465Z,5.63
2022-09-26T04:22:10.309Z,6.45
2022-09-26T04:24:37.532Z,5.57
2022-09-26T04:27:06.372Z,5.40
2022-09-26T04:29:33.574Z,5.57
2022-09-26T04:32:00.737Z,4.95
2022-09-26T04:34:27.901Z,5.03
2022-09-26T04:36:55.106Z,5.28
2022-09-26T04:39:23.143Z,5.00
2022-09-26T04:41:50.296Z,4.80
2022-09-26T04:44:17.376Z,4.30
2022-09-26T04:46:44.591Z,5.07
2022-09-26T04:49:11.723Z,5.00
2022-09-26T04:51:38.890Z,4.43
2022-09-26T04:54:06.422Z,4.97
2022-09-26T04:56:33.715Z,4.47
2022-09-26T04:59:00.850Z,5.53
2022-09-26T05:01:28.411Z,5.30
2022-09-26T05:03:56.264Z,4.43
2022-09-26T05:06:23.458Z,4.97
2022-09-26T05:08:50.854Z,4.82
2022-09-26T05:11:18.543Z,4.80
2022-09-26T05:13:53.753Z,4.72
2022-09-26T05:16:21.621Z,4.55
2022-09-26T05:18:52.320Z,4.38
2022-09-26T05:21:19.607Z,4.72
2022-09-26T05:24:05.335Z,4.50
2022-09-26T05:26:41.492Z,5.18
2022-09-26T05:29:09.311Z,4.45
2022-09-26T05:31:37.787Z,4.88
2022-09-26T05:34:05.974Z,4.90
2022-09-26T05:36:33.093Z,4.60
2022-09-26T05:39:00.567Z,5.10
2022-09-26T05:41:29.421Z,4.47
2022-09-26T05:43:56.543Z,4.43
2022-09-26T05:46:24.317Z,4.40
2022-09-26T05:48:51.525Z,4.50
2022-09-26T05:51:21.180Z,5.30
2022-09-26T05:53:49.526Z,4.22
2022-09-26T05:56:19.228Z,4.85
2022-09-26T05:58:46.779Z,4.95
2022-09-26T06:01:17.934Z,5.53
2022-09-26T06:03:46.197Z,5.07
2022-09-26T06:06:22.316Z,5.22
2022-09-26T06:08:49.868Z,5.43
2022-09-26T06:11:18.416Z,4.65
2022-09-26T06:13:46.518Z,4.63
2022-09-26T06:16:15.024Z,5.70
2022-09-26T06:18:42.364Z,4.80
2022-09-26T06:21:10.644Z,5.45
2022-09-26T06:23:38.028Z,6.05
2022-09-26T06:26:06.796Z,6.22
2022-09-26T06:28:33.944Z,7.25
2022-09-26T06:31:01.120Z,7.32
2022-09-26T06:33:33.164Z,7.07
2022-09-26T06:36:04.625Z,7.22
2022-09-26T06:38:31.875Z,7.80
2022-09-26T06:40:59.183Z,8.50
2022-09-26T06:43:26.399Z,8.25
2022-09-26T06:45:53.522Z,8.02
2022-09-26T06:48:25.007Z,7.97
2022-09-26T06:50:53.062Z,8.18
2022-09-26T06:53:20.353Z,7.75
2022-09-26T06:55:47.449Z,9.00
2022-09-26T06:58:14.663Z,8.65
2022-09-26T07:00:41.882Z,8.75
2022-09-26T07:03:09.117Z,8.23
2022-09-26T07:05:36.443Z,8.48
2022-09-26T07:08:03.937Z,8.45
2022-09-26T07:10:34.733Z,8.20
2022-09-26T07:13:04.000Z,7.38
2022-09-26T07:15:33.090Z,9.00
2022-09-26T07:18:02.604Z,8.73
2022-09-26T07:20:34.051Z,8.80
2022-09-26T07:23:02.554Z,9.05
2022-09-26T07:25:31.759Z,8.90
2022-09-26T07:27:59.322Z,8.25
2022-09-26T07:30:26.989Z,8.20
2022-09-26T07:32:58.458Z,7.88
2022-09-26T07:35:27.295Z,8.40
2022-09-26T07:37:54.412Z,7.53
2022-09-26T07:40:21.949Z,8.85
2022-09-26T07:43:09.365Z,8.52
2022-09-26T07:45:55.107Z,8.18
2022-09-26T07:48:41.131Z,7.72
2022-09-26T07:51:11.078Z,7.47
2022-09-26T07:53:41.113Z,7.18
2022-09-26T07:56:12.224Z,7.28
2022-09-26T07:58:41.136Z,7.00
2022-09-26T08:01:11.408Z,6.40
2022-09-26T08:03:39.724Z,6.22
2022-09-26T08:06:07.597Z,6.22
2022-09-26T08:08:35.275Z,6.10
2022-09-26T08:11:04.287Z,5.85
2022-09-26T08:13:32.557Z,5.25
2022-09-26T08:16:04.406Z,5.18
2022-09-26T08:18:33.286Z,5.00
2022-09-26T08:21:02.639Z,4.20
2022-09-26T08:23:29.769Z,4.80
2022-09-26T08:25:56.880Z,4.80
2022-09-26T08:28:24.107Z,4.35
2022-09-26T08:30:51.259Z,4.15
2022-09-26T08:33:19.116Z,4.25
2022-09-26T08:35:48.499Z,4.40
2022-09-26T08:38:15.717Z,3.53
2022-09-26T08:40:57.820Z,3.30
2022-09-26T08:43:43.845Z,3.80
2022-09-26T08:46:33.011Z,3.53
2022-09-26T08:49:24.090Z,3.25
2022-09-26T08:51:55.627Z,2.90
2022-09-26T08:54:22.968Z,3.20
2022-09-26T08:56:52.611Z,3.10
2022-09-26T08:59:38.703Z,3.15
2022-09-26T09:02:19.281Z,3.20
2022-09-26T09:05:05.548Z,2.97
2022-09-26T09:07:33.282Z,3.10
2022-09-26T09:10:02.385Z,3.03
2022-09-26T09:12:35.640Z,3.20
2022-09-26T09:15:26.245Z,2.67
2022-09-26T09:17:53.599Z,2.90
2022-09-26T09:20:53.183Z,2.92
2022-09-26T09:23:35.985Z,2.75
2022-09-26T09:29:18.998Z,2.60
2022-09-26T09:31:46.988Z,2.42
2022-09-26T09:34:23.016Z,2.35
2022-09-26T09:36:52.237Z,2.67
2022-09-26T09:39:24.847Z,2.75
2022-09-26T09:41:53.272Z,2.58
2022-09-26T09:44:29.649Z,2.65
2022-09-26T09:46:56.976Z,2.25
2022-09-26T09:49:24.942Z,2.40
2022-09-26T09:52:07.496Z,2.28
2022-09-26T09:54:43.546Z,2.08
2022-09-26T09:57:13.852Z,2.47
2022-09-26T09:59:57.918Z,2.20
2022-09-26T10:02:34.179Z,1.85
2022-09-26T10:05:20.257Z,2.40
2022-09-26T10:07:49.733Z,1.88
2022-09-26T10:10:20.969Z,2.08
2022-09-26T10:12:51.455Z,1.77
2022-09-26T10:15:20.659Z,1.85
2022-09-26T10:18:22.898Z,1.90
2022-09-26T10:20:54.231Z,2.00
2022-09-26T10:23:33.333Z,2.20
2022-09-26T10:26:05.210Z,2.15
2022-09-26T10:28:37.650Z,1.90
2022-09-26T10:31:09.875Z,2.70
2022-09-26T10:33:45.498Z,2.30
2022-09-26T10:36:19.664Z,2.63
2022-09-26T10:39:15.719Z,1.77
2022-09-26T10:41:44.983Z,1.90
2022-09-26T10:44:22.895Z,2.25
2022-09-26T10:46:51.515Z,2.60
2022-09-26T10:49:19.263Z,2.50
2022-09-26T10:51:50.416Z,2.67
2022-09-26T10:54:19.791Z,2.10
2022-09-26T10:56:49.674Z,1.75
2022-09-26T10:59:18.014Z,1.95
2022-09-26T11:01:52.177Z,2.40
2022-09-26T11:04:43.332Z,2.30
2022-09-26T11:07:19.507Z,2.30
2022-09-26T11:09:47.202Z,2.15
2022-09-26T11:12:39.665Z,1.92
2022-09-26T11:15:11.334Z,2.20
2022-09-26T11:17:48.755Z,2.50
2022-09-26T11:20:23.974Z,2.30
2022-09-26T11:23:06.697Z,2.33
2022-09-26T11:25:40.659Z,2.53
2022-09-26T11:28:13.208Z,2.53
2022-09-26T11:30:48.256Z,2.55
2022-09-26T11:33:18.970Z,1.90
2022-09-26T11:36:02.403Z,1.88
2022-09-26T11:38:56.101Z,2.20
2022-09-26T11:41:44.695Z,1.88
2022-09-26T11:44:17.600Z,1.90
2022-09-26T11:46:46.622Z,2.30
2022-09-26T11:49:26.160Z,2.10
2022-09-26T11:52:02.587Z,1.75
2022-09-26T11:54:39.567Z,1.60
2022-09-26T11:57:16.041Z,1.55
2022-09-26T11:59:46.854Z,1.80
2022-09-26T12:02:23.676Z,1.70
2022-09-26T12:05:04.149Z,1.63
2022-09-26T12:07:43.781Z,1.50
2022-09-26T12:17:27.560Z,1.50
2022-09-26T12:20:14.161Z,1.23
2022-09-26T12:22:53.295Z,1.67
2022-09-26T12:25:36.138Z,1.38
2022-09-26T12:28:42.678Z,1.75
2022-09-26T12:31:19.833Z,1.70
2022-09-26T12:33:47.122Z,1.65
2022-09-26T12:36:18.969Z,1.50
2022-09-26T12:39:04.489Z,1.50
2022-09-26T12:41:37.387Z,1.63
2022-09-26T12:44:33.915Z,1.60
2022-09-26T12:47:09.552Z,1.50
2022-09-26T12:49:50.902Z,1.60
2022-09-26T12:52:43.332Z,1.63
2022-09-26T12:55:19.119Z,1.55
2022-09-26T12:57:50.711Z,1.58
2022-09-26T13:00:21.930Z,1.60
2022-09-26T13:02:50.300Z,1.67
2022-09-26T13:05:17.468Z,2.15
2022-09-26T13:07:44.539Z,1.73
2022-09-26T13:10:23.953Z,1.83
2022-09-26T13:13:00.380Z,1.70
2022-09-26T13:15:43.887Z,1.80
2022-09-26T13:18:21.946Z,1.75
2022-09-26T13:20:59.221Z,1.65
2022-09-26T13:25:56.531Z,2.03
2022-09-26T13:28:29.650Z,1.90
2022-09-26T13:31:00.176Z,2.00
2022-09-26T13:33:31.034Z,2.63
2022-09-26T13:35:59.880Z,2.60
2022-09-26T13:38:45.886Z,2.25
2022-09-26T13:41:45.597Z,2.22
2022-09-26T13:44:12.756Z,2.08
2022-09-26T13:46:43.455Z,2.13
2022-09-26T13:49:29.608Z,2.45
2022-09-26T13:52:15.242Z,2.00
2022-09-26T13:55:01.982Z,2.00
2022-09-26T13:57:35.507Z,1.90
2022-09-26T14:00:08.099Z,2.28
2022-09-26T14:02:35.363Z,1.73
2022-09-26T14:05:02.569Z,1.98
2022-09-26T14:07:57.161Z,1.60
2022-09-26T14:10:37.970Z,1.85
2022-09-26T14:13:11.400Z,1.63
2022-09-26T14:15:50.908Z,1.80
2022-09-26T14:18:40.365Z,1.55
2022-09-26T14:21:07.702Z,1.80
2022-09-26T14:23:42.846Z,1.55
2022-09-26T14:26:14.399Z,2.30
2022-09-26T14:28:48.399Z,1.75
2022-09-26T14:31:36.315Z,1.70
2022-09-26T14:34:28.193Z,1.63
2022-09-26T14:36:57.467Z,1.77
2022-09-26T14:39:35.981Z,1.88
2022-09-26T14:42:22.025Z,1.63
2022-09-26T14:44:54.068Z,1.55
2022-09-26T14:47:21.886Z,1.50
2022-09-26T14:50:00.606Z,1.20
2022-09-26T14:52:27.791Z,1.20
2022-09-26T14:55:01.408Z,1.27
2022-09-26T14:57:33.592Z,1.10
2022-09-26T15:00:01.800Z,1.35
2022-09-26T15:02:41.979Z,1.30
2022-09-26T15:05:09.379Z,1.20
2022-09-26T15:07:41.836Z,1.20
2022-09-26T15:10:12.058Z,1.23
2022-09-26T15:12:44.259Z,1.40
2022-09-26T15:15:14.416Z,1.40
2022-09-26T15:17:44.946Z,0.95
2022-09-26T15:20:15.668Z,1.20
2022-09-26T15:22:45.722Z,1.15
2022-09-26T15:25:16.082Z,1.80
2022-09-26T15:27:46.190Z,1.30
2022-09-26T15:30:17.999Z,1.60
2022-09-26T15:32:47.735Z,1.02
2022-09-26T15:35:15.459Z,1.10
2022-09-26T15:37:42.688Z,1.15
2022-09-26T15:40:20.847Z,1.48
2022-09-26T15:43:01.691Z,1.10
2022-09-26T15:45:46.251Z,1.02
2022-09-26T15:48:25.905Z,1.27
2022-09-26T15:50:58.303Z,1.30
2022-09-26T15:53:52.011Z,1.20
2022-09-26T15:56:25.024Z,1.45
2022-09-26T15:58:54.861Z,1.20
2022-09-26T16:01:23.493Z,1.20
2022-09-26T16:03:51.044Z,1.45
2022-09-26T16:06:18.320Z,1.30
2022-09-26T16:08:51.475Z,1.40
2022-09-26T16:11:19.554Z,1.60
2022-09-26T16:13:49.343Z,1.30
2022-09-26T16:16:21.238Z,1.13
2022-09-26T16:18:56.407Z,1.48
2022-09-26T16:21:23.675Z,1.45
2022-09-26T16:23:52.135Z,1.30
2022-09-26T16:26:25.389Z,1.27
2022-09-26T16:28:53.807Z,1.50
2022-09-26T16:31:34.450Z,1.58
2022-09-26T16:34:02.478Z,1.30
2022-09-26T16:36:31.300Z,1.52
2022-09-26T16:39:08.802Z,1.80
2022-09-26T16:44:30.362Z,2.00
2022-09-26T16:47:05.471Z,1.63
2022-09-26T16:49:34.545Z,1.73
2022-09-26T16:52:17.319Z,1.80
2022-09-26T16:54:44.876Z,1.60
2022-09-26T16:57:32.662Z,2.17
2022-09-26T17:00:20.656Z,2.90
2022-09-26T17:32:16.000Z,4.22
2022-09-26T17:38:00.779Z,3.30
2022-09-26T17:40:52.536Z,2.83
2022-09-26T17:43:35.320Z,2.15
2022-09-26T17:46:18.600Z,2.13
2022-09-26T17:49:22.029Z,2.10
2022-09-26T17:52:04.642Z,2.10
2022-09-26T17:54:38.898Z,2.05
2022-09-26T17:57:38.270Z,2.40
2022-09-26T18:00:21.924Z,2.40
2022-09-26T18:06:10.537Z,2.30
2022-09-26T18:11:40.748Z,2.33
2022-09-26T18:14:24.385Z,2.47
2022-09-26T18:17:14.446Z,2.35
2022-09-26T18:20:02.119Z,2.20
2022-09-26T18:22:44.976Z,2.05
2022-09-26T18:28:52.718Z,2.05
2022-09-26T18:40:10.318Z,1.83
2022-09-26T18:42:42.311Z,1.88
2022-09-26T18:45:20.316Z,2.22
2022-09-26T18:48:02.070Z,1.63
2022-09-26T18:50:39.900Z,2.10
2022-09-26T18:53:22.741Z,2.25
2022-09-26T18:59:28.307Z,2.47
2022-09-26T19:02:14.417Z,2.40
2022-09-26T19:07:37.140Z,2.05
2022-09-26T19:10:13.125Z,2.38
2022-09-26T19:16:21.040Z,2.45
2022-09-26T19:19:13.152Z,1.95
2022-09-26T19:21:52.351Z,2.20
2022-09-26T19:24:38.082Z,2.25
2022-09-26T19:27:11.476Z,2.22
2022-09-26T19:30:12.527Z,2.28
2022-09-26T19:32:50.692Z,2.30
2022-09-26T19:35:26.028Z,2.20
2022-09-26T19:38:27.629Z,1.95
2022-09-26T19:41:06.844Z,2.10
2022-09-26T19:43:43.049Z,2.08
2022-09-26T19:46:25.171Z,1.90
2022-09-26T19:49:20.512Z,1.90
2022-09-26T19:52:04.369Z,1.80
2022-09-26T19:54:44.838Z,1.80
2022-09-26T19:57:26.353Z,2.00
2022-09-26T20:00:00.662Z,2.10
2022-09-26T20:02:42.824Z,1.80
2022-09-26T20:05:45.767Z,2.08
2022-09-26T20:08:36.890Z,1.80
2022-09-26T20:11:10.622Z,2.15
2022-09-26T20:16:51.683Z,2.20
2022-09-26T20:19:43.736Z,1.88
2022-09-26T20:22:35.424Z,2.20
2022-09-26T20:25:07.537Z,2.05
2022-09-26T20:27:47.783Z,1.83
2022-09-26T20:33:25.048Z,2.13
2022-09-26T20:36:03.014Z,1.70
2022-09-26T20:38:42.420Z,1.70
2022-09-26T20:41:21.241Z,2.22
2022-09-26T20:44:04.806Z,2.33
2022-09-26T20:46:48.257Z,2.05
2022-09-26T20:49:32.898Z,2.40
2022-09-26T20:52:17.377Z,2.42
2022-09-26T20:54:54.977Z,2.20
2022-09-26T20:57:44.344Z,2.25
2022-09-26T21:00:23.840Z,1.90
2022-09-26T21:03:06.564Z,2.20
2022-09-26T21:05:42.413Z,1.85
2022-09-26T21:13:33.966Z,1.77
2022-09-26T21:16:09.032Z,1.77
2022-09-26T21:21:11.797Z,1.70
2022-09-26T21:23:55.534Z,1.80
2022-09-26T21:26:39.090Z,1.75
2022-09-26T21:32:10.756Z,1.83
2022-09-26T21:34:44.048Z,1.85
2022-09-26T21:37:11.333Z,1.80
2022-09-26T21:39:40.014Z,1.88
2022-09-26T21:42:07.841Z,1.65
2022-09-26T21:47:33.238Z,1.70
2022-09-26T21:50:00.524Z,2.15
2022-09-26T21:52:31.725Z,1.90
2022-09-26T21:54:59.491Z,1.52
2022-09-26T21:57:29.597Z,1.67
2022-09-26T21:59:59.075Z,1.60
2022-09-26T22:02:28.155Z,1.50
2022-09-26T22:04:55.986Z,1.80
2022-09-26T22:07:23.255Z,1.50
2022-09-26T22:09:50.368Z,1.55
2022-09-26T22:12:17.708Z,1.52
2022-09-26T22:14:45.464Z,1.70
2022-09-26T22:17:12.858Z,1.85
2022-09-26T22:19:40.063Z,2.05
2022-09-26T22:22:07.311Z,1.70
2022-09-26T22:24:35.455Z,1.70
2022-09-26T22:27:02.603Z,1.52
2022-09-26T22:29:29.787Z,1.77
2022-09-26T22:31:57.181Z,1.80
2022-09-26T22:34:33.303Z,1.45
2022-09-26T22:37:08.285Z,1.35
2022-09-26T22:39:43.308Z,1.50
2022-09-26T22:45:12.133Z,1.30
2022-09-26T22:50:17.355Z,1.73
2022-09-26T22:52:53.293Z,1.38
2022-09-26T22:55:33.700Z,1.20
2022-09-26T23:01:17.536Z,1.55
2022-09-26T23:03:44.909Z,1.30
2022-09-26T23:06:12.608Z,1.30
2022-09-26T23:08:39.800Z,1.48
2022-09-26T23:11:07.548Z,1.50
2022-09-26T23:13:35.608Z,1.40
2022-09-26T23:16:07.205Z,1.25
2022-09-26T23:18:34.897Z,1.40
2022-09-26T23:21:05.984Z,1.75
2022-09-26T23:23:33.272Z,1.48
2022-09-26T23:26:00.784Z,1.52
2022-09-26T23:28:28.331Z,1.55
2022-09-26T23:30:55.471Z,1.45
2022-09-26T23:33:22.626Z,1.63
2022-09-26T23:35:57.059Z,1.83
2022-09-26T23:38:24.271Z,1.20
2022-09-26T23:40:52.117Z,1.70
2022-09-26T23:43:19.407Z,1.50
2022-09-26T23:45:46.936Z,1.38
2022-09-26T23:48:14.175Z,1.40
2022-09-26T23:50:41.620Z,1.23
2022-09-26T23:53:08.770Z,1.25
2022-09-26T23:55:35.940Z,1.50
2022-09-26T23:58:03.259Z,1.38
